Hovedside
METAR-TAF:

METAR-TAF

Lufthavner :

Sindal, Danmark

breddegrad: 57-30N, lengdegrad: 010-13E, høyde over havet: 28 m

Gjeldene værobservasjon

Denne rapporten ble laget for 2 timer og 52 minutter siden, klokken 11:50 UTC
Vind 4 kt fra Vest-nordvest
Temperatur 22°C
Luftfuktighet 73%
Trykk 1015 hPa
Sikt: 8000 m
Spredte skyer i en høyde av 12000 ft

METAR: EKSN 181150Z 30004KT 8000 SCT120 22/17 Q1015

Tid: 16:42 (14:42 UTC)

Varsel

Denne rapporten ble laget for 5 timer og 48 minutter siden, klokken 08:54 UTC
Varsel gyldig fra 18. klokken 09 UTC til 18. klokken 14 UTC
Vind 5 kt fra Vest
Sikt 10 km eller mer
Spredte skyer i en høyde av 2000 ft
Midlertidig
fra 18. klokken 12 UTC til 18. klokken 14 UTC
Spredte skyer i en høyde av 3000 ft, Bygeskyer.
regnbyger

TAF: EKSN 180854Z 1809/1814 27005KT 9999 SCT020 TEMPO 1812/1814 SHRA SCT030CB

Værobservasjoner og værvarsel for over 4000 flyplasser (METAR- og TAF-rapporter).

Tilgjengelige stasjoner er representert av de røde og gule prikkene på kartet.

Hold musepekeren over prikken for å se navnet på stasjonen.

Klikk så for å se værobservasjoner og -varsler.

For å forandre kartet kan du klikke på den grønne knappen med svart kryss for å zoome inn, på den grønne knappen med strek for å zoome ut, eller på de grønne pilene for å se tilstøtende kart.


METAR-TAF: